sensor_id;sensor_type;location;lat;lon;timestamp;temperature;humidity
67354;SHT30;54238;52.278;21.056;2022-07-12T00:01:23;14.76;74.99
67354;SHT30;54238;52.278;21.056;2022-07-12T00:03:49;14.75;74.99
67354;SHT30;54238;52.278;21.056;2022-07-12T00:06:16;14.74;75.07
67354;SHT30;54238;52.278;21.056;2022-07-12T00:08:48;14.73;75.16
67354;SHT30;54238;52.278;21.056;2022-07-12T00:11:18;14.74;75.14
67354;SHT30;54238;52.278;21.056;2022-07-12T00:13:47;14.73;75.14
67354;SHT30;54238;52.278;21.056;2022-07-12T00:16:19;14.76;75.15
67354;SHT30;54238;52.278;21.056;2022-07-12T00:18:45;14.78;75.16
67354;SHT30;54238;52.278;21.056;2022-07-12T00:21:12;14.80;75.18
67354;SHT30;54238;52.278;21.056;2022-07-12T00:23:42;14.82;75.16
67354;SHT30;54238;52.278;21.056;2022-07-12T00:26:16;14.84;75.16
67354;SHT30;54238;52.278;21.056;2022-07-12T00:28:46;14.82;75.29
67354;SHT30;54238;52.278;21.056;2022-07-12T00:31:16;14.77;75.53
67354;SHT30;54238;52.278;21.056;2022-07-12T00:33:43;14.73;75.60
67354;SHT30;54238;52.278;21.056;2022-07-12T00:36:11;14.67;75.89
67354;SHT30;54238;52.278;21.056;2022-07-12T00:38:41;14.64;76.03
67354;SHT30;54238;52.278;21.056;2022-07-12T00:41:08;14.61;76.22
67354;SHT30;54238;52.278;21.056;2022-07-12T00:43:35;14.56;76.42
67354;SHT30;54238;52.278;21.056;2022-07-12T00:46:06;14.56;76.56
67354;SHT30;54238;52.278;21.056;2022-07-12T00:48:36;14.56;76.55
67354;SHT30;54238;52.278;21.056;2022-07-12T00:51:06;14.58;76.56
67354;SHT30;54238;52.278;21.056;2022-07-12T00:53:35;14.58;76.79
67354;SHT30;54238;52.278;21.056;2022-07-12T00:56:04;14.58;76.89
67354;SHT30;54238;52.278;21.056;2022-07-12T00:58:34;14.58;76.96
67354;SHT30;54238;52.278;21.056;2022-07-12T01:01:06;14.60;76.96
67354;SHT30;54238;52.278;21.056;2022-07-12T01:03:41;14.59;77.12
67354;SHT30;54238;52.278;21.056;2022-07-12T01:06:11;14.59;77.07
67354;SHT30;54238;52.278;21.056;2022-07-12T01:08:38;14.59;77.20
67354;SHT30;54238;52.278;21.056;2022-07-12T01:11:10;14.60;77.20
67354;SHT30;54238;52.278;21.056;2022-07-12T01:13:38;14.60;77.31
67354;SHT30;54238;52.278;21.056;2022-07-12T01:16:06;14.58;77.37
67354;SHT30;54238;52.278;21.056;2022-07-12T01:18:35;14.58;77.52
67354;SHT30;54238;52.278;21.056;2022-07-12T01:21:04;14.58;77.53
67354;SHT30;54238;52.278;21.056;2022-07-12T01:23:39;14.58;77.52
67354;SHT30;54238;52.278;21.056;2022-07-12T01:26:06;14.60;77.61
67354;SHT30;54238;52.278;21.056;2022-07-12T01:28:34;14.59;77.75
67354;SHT30;54238;52.278;21.056;2022-07-12T01:31:04;14.59;77.78
67354;SHT30;54238;52.278;21.056;2022-07-12T01:33:31;14.57;77.79
67354;SHT30;54238;52.278;21.056;2022-07-12T01:36:00;14.58;77.82
67354;SHT30;54238;52.278;21.056;2022-07-12T01:38:27;14.57;77.94
67354;SHT30;54238;52.278;21.056;2022-07-12T01:40:54;14.57;77.88
67354;SHT30;54238;52.278;21.056;2022-07-12T01:43:29;14.58;77.90
67354;SHT30;54238;52.278;21.056;2022-07-12T01:45:58;14.57;78.11
67354;SHT30;54238;52.278;21.056;2022-07-12T01:48:24;14.55;78.21
67354;SHT30;54238;52.278;21.056;2022-07-12T01:50:54;14.56;78.11
67354;SHT30;54238;52.278;21.056;2022-07-12T01:53:21;14.54;78.43
67354;SHT30;54238;52.278;21.056;2022-07-12T01:55:49;14.54;78.42
67354;SHT30;54238;52.278;21.056;2022-07-12T01:58:18;14.52;78.40
67354;SHT30;54238;52.278;21.056;2022-07-12T02:00:52;14.53;78.36
67354;SHT30;54238;52.278;21.056;2022-07-12T02:03:22;14.56;78.34
67354;SHT30;54238;52.278;21.056;2022-07-12T02:05:51;14.59;78.52
67354;SHT30;54238;52.278;21.056;2022-07-12T02:08:18;14.58;78.56
67354;SHT30;54238;52.278;21.056;2022-07-12T02:10:45;14.60;78.56
67354;SHT30;54238;52.278;21.056;2022-07-12T02:13:12;14.62;78.45
67354;SHT30;54238;52.278;21.056;2022-07-12T02:15:39;14.65;78.56
67354;SHT30;54238;52.278;21.056;2022-07-12T02:18:10;14.68;78.51
67354;SHT30;54238;52.278;21.056;2022-07-12T02:20:39;14.72;78.41
67354;SHT30;54238;52.278;21.056;2022-07-12T02:23:06;14.75;78.35
67354;SHT30;54238;52.278;21.056;2022-07-12T02:25:38;14.77;78.32
67354;SHT30;54238;52.278;21.056;2022-07-12T02:28:07;14.81;78.19
67354;SHT30;54238;52.278;21.056;2022-07-12T02:30:37;14.84;78.20
67354;SHT30;54238;52.278;21.056;2022-07-12T02:33:07;14.87;78.25
67354;SHT30;54238;52.278;21.056;2022-07-12T02:35:36;14.86;78.23
67354;SHT30;54238;52.278;21.056;2022-07-12T02:38:05;14.89;78.23
67354;SHT30;54238;52.278;21.056;2022-07-12T02:40:32;14.89;78.28
67354;SHT30;54238;52.278;21.056;2022-07-12T02:43:17;14.89;78.33
67354;SHT30;54238;52.278;21.056;2022-07-12T02:45:49;14.93;78.22
67354;SHT30;54238;52.278;21.056;2022-07-12T02:48:20;14.96;78.19
67354;SHT30;54238;52.278;21.056;2022-07-12T02:50:52;14.98;78.11
67354;SHT30;54238;52.278;21.056;2022-07-12T02:53:22;15.02;78.09
67354;SHT30;54238;52.278;21.056;2022-07-12T02:55:49;15.02;78.06
67354;SHT30;54238;52.278;21.056;2022-07-12T02:58:16;15.02;78.05
67354;SHT30;54238;52.278;21.056;2022-07-12T03:00:43;15.02;78.04
67354;SHT30;54238;52.278;21.056;2022-07-12T03:03:12;15.04;78.10
67354;SHT30;54238;52.278;21.056;2022-07-12T03:05:40;15.06;78.08
67354;SHT30;54238;52.278;21.056;2022-07-12T03:08:09;15.07;77.97
67354;SHT30;54238;52.278;21.056;2022-07-12T03:10:37;15.08;78.04
67354;SHT30;54238;52.278;21.056;2022-07-12T03:13:09;15.06;78.10
67354;SHT30;54238;52.278;21.056;2022-07-12T03:15:38;15.06;78.12
67354;SHT30;54238;52.278;21.056;2022-07-12T03:18:17;15.07;78.08
67354;SHT30;54238;52.278;21.056;2022-07-12T03:20:45;15.12;78.02
67354;SHT30;54238;52.278;21.056;2022-07-12T03:23:17;15.17;77.96
67354;SHT30;54238;52.278;21.056;2022-07-12T03:25:45;15.20;77.89
67354;SHT30;54238;52.278;21.056;2022-07-12T03:28:12;15.24;77.76
67354;SHT30;54238;52.278;21.056;2022-07-12T03:30:39;15.28;77.72
67354;SHT30;54238;52.278;21.056;2022-07-12T03:33:08;15.30;77.63
67354;SHT30;54238;52.278;21.056;2022-07-12T03:35:38;15.31;77.65
67354;SHT30;54238;52.278;21.056;2022-07-12T03:38:05;15.30;77.64
67354;SHT30;54238;52.278;21.056;2022-07-12T03:40:36;15.33;77.64
67354;SHT30;54238;52.278;21.056;2022-07-12T03:43:06;15.33;77.67
67354;SHT30;54238;52.278;21.056;2022-07-12T03:45:36;15.33;77.75
67354;SHT30;54238;52.278;21.056;2022-07-12T03:48:03;15.36;77.72
67354;SHT30;54238;52.278;21.056;2022-07-12T03:50:31;15.40;77.60
67354;SHT30;54238;52.278;21.056;2022-07-12T03:53:00;15.46;77.52
67354;SHT30;54238;52.278;21.056;2022-07-12T03:55:30;15.51;77.43
67354;SHT30;54238;52.278;21.056;2022-07-12T03:57:59;15.54;77.43
67354;SHT30;54238;52.278;21.056;2022-07-12T04:00:31;15.54;77.38
67354;SHT30;54238;52.278;21.056;2022-07-12T04:03:03;15.60;77.38
67354;SHT30;54238;52.278;21.056;2022-07-12T04:05:32;15.68;77.17
67354;SHT30;54238;52.278;21.056;2022-07-12T04:08:01;15.72;77.04
67354;SHT30;54238;52.278;21.056;2022-07-12T04:10:30;15.75;76.93
67354;SHT30;54238;52.278;21.056;2022-07-12T04:13:02;15.78;76.85
67354;SHT30;54238;52.278;21.056;2022-07-12T04:15:32;15.81;76.81
67354;SHT30;54238;52.278;21.056;2022-07-12T04:18:01;15.83;76.75
67354;SHT30;54238;52.278;21.056;2022-07-12T04:20:29;15.82;76.79
67354;SHT30;54238;52.278;21.056;2022-07-12T04:22:59;15.86;76.71
67354;SHT30;54238;52.278;21.056;2022-07-12T04:25:28;15.93;76.68
67354;SHT30;54238;52.278;21.056;2022-07-12T04:27:56;16.00;76.52
67354;SHT30;54238;52.278;21.056;2022-07-12T04:33:04;16.09;76.25
67354;SHT30;54238;52.278;21.056;2022-07-12T04:35:34;16.10;76.15
67354;SHT30;54238;52.278;21.056;2022-07-12T04:38:01;16.09;76.18
67354;SHT30;54238;52.278;21.056;2022-07-12T04:40:32;16.05;76.22
67354;SHT30;54238;52.278;21.056;2022-07-12T04:43:02;16.08;76.27
67354;SHT30;54238;52.278;21.056;2022-07-12T04:45:29;16.09;76.23
67354;SHT30;54238;52.278;21.056;2022-07-12T04:47:56;16.03;76.32
67354;SHT30;54238;52.278;21.056;2022-07-12T04:50:25;16.00;76.38
67354;SHT30;54238;52.278;21.056;2022-07-12T04:52:54;15.98;76.43
67354;SHT30;54238;52.278;21.056;2022-07-12T04:55:21;15.98;76.52
67354;SHT30;54238;52.278;21.056;2022-07-12T04:57:50;16.01;76.56
67354;SHT30;54238;52.278;21.056;2022-07-12T05:00:17;16.03;76.53
67354;SHT30;54238;52.278;21.056;2022-07-12T05:02:44;16.07;76.45
67354;SHT30;54238;52.278;21.056;2022-07-12T05:05:14;16.06;76.40
67354;SHT30;54238;52.278;21.056;2022-07-12T05:07:43;16.10;76.31
67354;SHT30;54238;52.278;21.056;2022-07-12T05:10:10;16.12;76.22
67354;SHT30;54238;52.278;21.056;2022-07-12T05:12:40;16.18;76.23
67354;SHT30;54238;52.278;21.056;2022-07-12T05:15:07;16.25;76.07
67354;SHT30;54238;52.278;21.056;2022-07-12T05:17:34;16.27;75.97
67354;SHT30;54238;52.278;21.056;2022-07-12T05:20:06;16.34;75.93
67354;SHT30;54238;52.278;21.056;2022-07-12T05:22:37;16.46;75.77
67354;SHT30;54238;52.278;21.056;2022-07-12T05:25:04;16.55;75.57
67354;SHT30;54238;52.278;21.056;2022-07-12T05:27:31;16.61;75.29
67354;SHT30;54238;52.278;21.056;2022-07-12T05:30:01;16.63;75.15
67354;SHT30;54238;52.278;21.056;2022-07-12T05:32:32;16.62;75.10
67354;SHT30;54238;52.278;21.056;2022-07-12T05:35:04;16.62;74.97
67354;SHT30;54238;52.278;21.056;2022-07-12T05:37:36;16.61;74.93
67354;SHT30;54238;52.278;21.056;2022-07-12T05:40:06;16.62;75.00
67354;SHT30;54238;52.278;21.056;2022-07-12T05:42:36;16.62;74.88
67354;SHT30;54238;52.278;21.056;2022-07-12T05:45:04;16.65;74.90
67354;SHT30;54238;52.278;21.056;2022-07-12T05:47:32;16.68;74.76
67354;SHT30;54238;52.278;21.056;2022-07-12T05:50:03;16.69;74.70
67354;SHT30;54238;52.278;21.056;2022-07-12T05:52:34;16.71;74.54
67354;SHT30;54238;52.278;21.056;2022-07-12T05:55:21;16.77;74.48
67354;SHT30;54238;52.278;21.056;2022-07-12T05:57:48;16.87;74.32
67354;SHT30;54238;52.278;21.056;2022-07-12T06:00:20;17.01;74.08
67354;SHT30;54238;52.278;21.056;2022-07-12T06:02:49;17.06;73.81
67354;SHT30;54238;52.278;21.056;2022-07-12T06:05:20;17.12;73.65
67354;SHT30;54238;52.278;21.056;2022-07-12T06:10:26;17.26;73.65
67354;SHT30;54238;52.278;21.056;2022-07-12T06:12:53;17.32;73.33
67354;SHT30;54238;52.278;21.056;2022-07-12T06:15:22;17.40;73.24
67354;SHT30;54238;52.278;21.056;2022-07-12T06:17:52;17.43;72.96
67354;SHT30;54238;52.278;21.056;2022-07-12T06:20:21;17.41;72.71
67354;SHT30;54238;52.278;21.056;2022-07-12T06:22:50;17.43;72.72
67354;SHT30;54238;52.278;21.056;2022-07-12T06:25:19;17.44;72.41
67354;SHT30;54238;52.278;21.056;2022-07-12T06:27:49;17.45;72.58
67354;SHT30;54238;52.278;21.056;2022-07-12T06:30:18;17.61;72.38
67354;SHT30;54238;52.278;21.056;2022-07-12T06:32:48;17.75;72.02
67354;SHT30;54238;52.278;21.056;2022-07-12T06:35:15;17.82;71.59
67354;SHT30;54238;52.278;21.056;2022-07-12T06:37:45;17.89;71.38
67354;SHT30;54238;52.278;21.056;2022-07-12T06:40:14;17.95;71.43
67354;SHT30;54238;52.278;21.056;2022-07-12T06:42:46;18.06;71.16
67354;SHT30;54238;52.278;21.056;2022-07-12T06:45:18;18.16;70.87
67354;SHT30;54238;52.278;21.056;2022-07-12T06:47:47;18.24;70.23
67354;SHT30;54238;52.278;21.056;2022-07-12T06:50:14;18.31;70.08
67354;SHT30;54238;52.278;21.056;2022-07-12T06:52:48;18.35;69.55
67354;SHT30;54238;52.278;21.056;2022-07-12T06:55:17;18.42;69.71
67354;SHT30;54238;52.278;21.056;2022-07-12T06:57:44;18.54;69.34
67354;SHT30;54238;52.278;21.056;2022-07-12T07:00:13;18.60;68.95
67354;SHT30;54238;52.278;21.056;2022-07-12T07:03:13;18.76;68.73
67354;SHT30;54238;52.278;21.056;2022-07-12T07:05:42;18.85;67.80
67354;SHT30;54238;52.278;21.056;2022-07-12T07:08:11;19.01;68.17
67354;SHT30;54238;52.278;21.056;2022-07-12T07:10:43;19.23;67.40
67354;SHT30;54238;52.278;21.056;2022-07-12T07:13:15;19.39;66.91
67354;SHT30;54238;52.278;21.056;2022-07-12T07:15:42;19.51;66.73
67354;SHT30;54238;52.278;21.056;2022-07-12T07:18:17;19.61;66.23
67354;SHT30;54238;52.278;21.056;2022-07-12T07:20:47;19.66;65.18
67354;SHT30;54238;52.278;21.056;2022-07-12T07:23:14;19.64;64.72
67354;SHT30;54238;52.278;21.056;2022-07-12T07:25:44;19.63;64.58
67354;SHT30;54238;52.278;21.056;2022-07-12T07:28:12;19.70;65.06
67354;SHT30;54238;52.278;21.056;2022-07-12T07:30:41;19.80;64.28
67354;SHT30;54238;52.278;21.056;2022-07-12T07:33:21;19.77;63.84
67354;SHT30;54238;52.278;21.056;2022-07-12T07:35:51;19.83;64.21
67354;SHT30;54238;52.278;21.056;2022-07-12T07:38:21;19.95;63.95
67354;SHT30;54238;52.278;21.056;2022-07-12T07:40:50;20.02;63.69
67354;SHT30;54238;52.278;21.056;2022-07-12T07:43:22;20.04;62.75
67354;SHT30;54238;52.278;21.056;2022-07-12T07:45:52;20.04;62.46
67354;SHT30;54238;52.278;21.056;2022-07-12T07:48:24;20.06;62.35
67354;SHT30;54238;52.278;21.056;2022-07-12T07:50:53;20.14;62.50
67354;SHT30;54238;52.278;21.056;2022-07-12T07:53:28;20.20;61.72
67354;SHT30;54238;52.278;21.056;2022-07-12T07:55:59;20.20;61.79
67354;SHT30;54238;52.278;21.056;2022-07-12T07:58:27;20.16;61.57
67354;SHT30;54238;52.278;21.056;2022-07-12T08:00:54;20.10;61.33
67354;SHT30;54238;52.278;21.056;2022-07-12T08:03:22;20.11;61.80
67354;SHT30;54238;52.278;21.056;2022-07-12T08:05:48;20.22;61.90
67354;SHT30;54238;52.278;21.056;2022-07-12T08:08:17;20.38;62.49
67354;SHT30;54238;52.278;21.056;2022-07-12T08:10:45;20.56;61.07
67354;SHT30;54238;52.278;21.056;2022-07-12T08:13:14;20.57;59.54
67354;SHT30;54238;52.278;21.056;2022-07-12T08:15:47;20.53;60.14
67354;SHT30;54238;52.278;21.056;2022-07-12T08:18:14;20.57;60.96
67354;SHT30;54238;52.278;21.056;2022-07-12T08:20:43;20.62;60.95
67354;SHT30;54238;52.278;21.056;2022-07-12T08:23:17;20.69;61.60
67354;SHT30;54238;52.278;21.056;2022-07-12T08:25:51;20.68;60.28
67354;SHT30;54238;52.278;21.056;2022-07-12T08:28:35;20.56;60.49
67354;SHT30;54238;52.278;21.056;2022-07-12T08:31:02;20.53;60.17
67354;SHT30;54238;52.278;21.056;2022-07-12T08:33:32;20.46;59.97
67354;SHT30;54238;52.278;21.056;2022-07-12T08:36:04;20.44;59.93
67354;SHT30;54238;52.278;21.056;2022-07-12T08:38:35;20.38;59.67
67354;SHT30;54238;52.278;21.056;2022-07-12T08:41:10;20.42;59.89
67354;SHT30;54238;52.278;21.056;2022-07-12T08:43:41;20.50;59.93
67354;SHT30;54238;52.278;21.056;2022-07-12T08:46:12;20.62;59.53
67354;SHT30;54238;52.278;21.056;2022-07-12T08:48:41;20.60;59.07
67354;SHT30;54238;52.278;21.056;2022-07-12T08:51:12;20.60;58.97
67354;SHT30;54238;52.278;21.056;2022-07-12T08:53:47;20.62;58.61
67354;SHT30;54238;52.278;21.056;2022-07-12T08:56:52;20.67;58.90
67354;SHT30;54238;52.278;21.056;2022-07-12T08:59:26;20.66;58.65
67354;SHT30;54238;52.278;21.056;2022-07-12T09:01:56;20.69;59.10
67354;SHT30;54238;52.278;21.056;2022-07-12T09:04:25;20.75;58.24
67354;SHT30;54238;52.278;21.056;2022-07-12T09:06:56;20.86;57.99
67354;SHT30;54238;52.278;21.056;2022-07-12T09:09:39;20.95;56.95
67354;SHT30;54238;52.278;21.056;2022-07-12T09:12:06;21.03;56.92
67354;SHT30;54238;52.278;21.056;2022-07-12T09:14:51;21.08;56.16
67354;SHT30;54238;52.278;21.056;2022-07-12T09:17:22;21.09;56.23
67354;SHT30;54238;52.278;21.056;2022-07-12T09:19:55;21.11;56.76
67354;SHT30;54238;52.278;21.056;2022-07-12T09:22:25;21.19;56.72
67354;SHT30;54238;52.278;21.056;2022-07-12T09:24:57;21.24;56.59
67354;SHT30;54238;52.278;21.056;2022-07-12T09:27:36;21.38;56.56
67354;SHT30;54238;52.278;21.056;2022-07-12T09:30:03;21.49;56.01
67354;SHT30;54238;52.278;21.056;2022-07-12T09:32:32;21.54;55.65
67354;SHT30;54238;52.278;21.056;2022-07-12T09:35:20;21.58;55.61
67354;SHT30;54238;52.278;21.056;2022-07-12T09:38:09;21.59;55.02
67354;SHT30;54238;52.278;21.056;2022-07-12T09:40:38;21.58;55.36
67354;SHT30;54238;52.278;21.056;2022-07-12T09:43:06;21.62;55.54
67354;SHT30;54238;52.278;21.056;2022-07-12T09:45:37;21.64;55.25
67354;SHT30;54238;52.278;21.056;2022-07-12T09:48:10;21.68;55.59
67354;SHT30;54238;52.278;21.056;2022-07-12T09:50:38;21.80;55.69
67354;SHT30;54238;52.278;21.056;2022-07-12T09:53:06;21.93;55.49
67354;SHT30;54238;52.278;21.056;2022-07-12T09:55:40;22.01;55.18
67354;SHT30;54238;52.278;21.056;2022-07-12T09:58:11;22.07;54.72
67354;SHT30;54238;52.278;21.056;2022-07-12T10:00:40;22.07;54.22
67354;SHT30;54238;52.278;21.056;2022-07-12T10:03:10;22.07;54.44
67354;SHT30;54238;52.278;21.056;2022-07-12T10:05:39;22.14;54.68
67354;SHT30;54238;52.278;21.056;2022-07-12T10:08:09;22.17;53.60
67354;SHT30;54238;52.278;21.056;2022-07-12T10:10:39;22.03;53.49
67354;SHT30;54238;52.278;21.056;2022-07-12T10:13:13;21.95;53.80
67354;SHT30;54238;52.278;21.056;2022-07-12T10:15:46;21.88;53.74
67354;SHT30;54238;52.278;21.056;2022-07-12T10:18:27;21.79;54.02
67354;SHT30;54238;52.278;21.056;2022-07-12T10:20:57;21.73;54.36
67354;SHT30;54238;52.278;21.056;2022-07-12T10:23:29;21.76;54.59
67354;SHT30;54238;52.278;21.056;2022-07-12T10:28:54;21.72;54.10
67354;SHT30;54238;52.278;21.056;2022-07-12T10:31:28;21.56;54.46
67354;SHT30;54238;52.278;21.056;2022-07-12T10:34:10;21.50;54.97
67354;SHT30;54238;52.278;21.056;2022-07-12T10:39:22;21.54;54.46
67354;SHT30;54238;52.278;21.056;2022-07-12T10:44:46;21.52;54.28
67354;SHT30;54238;52.278;21.056;2022-07-12T10:47:15;21.53;54.50
67354;SHT30;54238;52.278;21.056;2022-07-12T10:49:50;21.57;54.45
67354;SHT30;54238;52.278;21.056;2022-07-12T10:52:24;21.56;54.02
67354;SHT30;54238;52.278;21.056;2022-07-12T11:00:24;21.55;53.40
67354;SHT30;54238;52.278;21.056;2022-07-12T11:02:54;21.54;53.56
67354;SHT30;54238;52.278;21.056;2022-07-12T11:05:28;21.58;53.45
67354;SHT30;54238;52.278;21.056;2022-07-12T11:08:02;21.60;53.25
67354;SHT30;54238;52.278;21.056;2022-07-12T11:10:53;21.62;53.06
67354;SHT30;54238;52.278;21.056;2022-07-12T11:13:27;21.63;53.01
67354;SHT30;54238;52.278;21.056;2022-07-12T11:15:58;21.71;53.57
67354;SHT30;54238;52.278;21.056;2022-07-12T11:18:32;21.77;53.09
67354;SHT30;54238;52.278;21.056;2022-07-12T11:21:04;21.84;52.78
67354;SHT30;54238;52.278;21.056;2022-07-12T11:23:32;21.87;52.55
67354;SHT30;54238;52.278;21.056;2022-07-12T11:26:00;21.90;52.30
67354;SHT30;54238;52.278;21.056;2022-07-12T11:28:33;21.92;52.08
67354;SHT30;54238;52.278;21.056;2022-07-12T11:31:05;21.89;51.58
67354;SHT30;54238;52.278;21.056;2022-07-12T11:33:44;21.86;51.51
67354;SHT30;54238;52.278;21.056;2022-07-12T11:36:17;21.83;51.67
67354;SHT30;54238;52.278;21.056;2022-07-12T11:38:46;21.89;51.81
67354;SHT30;54238;52.278;21.056;2022-07-12T11:41:15;21.91;51.72
67354;SHT30;54238;52.278;21.056;2022-07-12T11:43:46;21.94;51.44
67354;SHT30;54238;52.278;21.056;2022-07-12T11:46:15;21.98;50.90
67354;SHT30;54238;52.278;21.056;2022-07-12T11:48:45;21.99;50.62
67354;SHT30;54238;52.278;21.056;2022-07-12T11:51:12;22.02;51.15
67354;SHT30;54238;52.278;21.056;2022-07-12T11:53:41;22.09;51.10
67354;SHT30;54238;52.278;21.056;2022-07-12T11:56:08;22.14;50.93
67354;SHT30;54238;52.278;21.056;2022-07-12T11:58:37;22.19;51.13
67354;SHT30;54238;52.278;21.056;2022-07-12T12:01:12;22.23;50.73
67354;SHT30;54238;52.278;21.056;2022-07-12T12:03:44;22.20;49.80
67354;SHT30;54238;52.278;21.056;2022-07-12T12:06:18;22.18;49.39
67354;SHT30;54238;52.278;21.056;2022-07-12T12:08:50;22.19;49.07
67354;SHT30;54238;52.278;21.056;2022-07-12T12:11:26;22.26;49.51
67354;SHT30;54238;52.278;21.056;2022-07-12T12:13:56;22.33;49.08
67354;SHT30;54238;52.278;21.056;2022-07-12T12:16:31;22.40;49.08
67354;SHT30;54238;52.278;21.056;2022-07-12T12:19:07;22.42;48.76
67354;SHT30;54238;52.278;21.056;2022-07-12T12:21:40;22.33;48.98
67354;SHT30;54238;52.278;21.056;2022-07-12T12:24:09;22.28;49.17
67354;SHT30;54238;52.278;21.056;2022-07-12T12:26:39;22.25;49.74
67354;SHT30;54238;52.278;21.056;2022-07-12T12:29:06;22.22;49.85
67354;SHT30;54238;52.278;21.056;2022-07-12T12:31:36;22.21;49.87
67354;SHT30;54238;52.278;21.056;2022-07-12T12:34:10;22.19;49.22
67354;SHT30;54238;52.278;21.056;2022-07-12T12:36:40;22.19;49.11
67354;SHT30;54238;52.278;21.056;2022-07-12T12:39:07;22.22;49.33
67354;SHT30;54238;52.278;21.056;2022-07-12T12:41:41;22.23;49.00
67354;SHT30;54238;52.278;21.056;2022-07-12T12:44:16;22.23;48.75
67354;SHT30;54238;52.278;21.056;2022-07-12T12:46:46;22.22;48.83
67354;SHT30;54238;52.278;21.056;2022-07-12T12:49:43;22.16;48.64
67354;SHT30;54238;52.278;21.056;2022-07-12T12:52:11;22.12;49.24
67354;SHT30;54238;52.278;21.056;2022-07-12T12:54:38;22.08;48.49
67354;SHT30;54238;52.278;21.056;2022-07-12T12:57:09;22.02;48.51
67354;SHT30;54238;52.278;21.056;2022-07-12T12:59:44;22.02;48.66
67354;SHT30;54238;52.278;21.056;2022-07-12T13:02:13;22.05;48.94
67354;SHT30;54238;52.278;21.056;2022-07-12T13:04:45;22.10;48.99
67354;SHT30;54238;52.278;21.056;2022-07-12T13:07:12;22.15;49.21
67354;SHT30;54238;52.278;21.056;2022-07-12T13:09:41;22.22;49.47
67354;SHT30;54238;52.278;21.056;2022-07-12T13:12:11;22.27;49.33
67354;SHT30;54238;52.278;21.056;2022-07-12T13:14:40;22.28;49.17
67354;SHT30;54238;52.278;21.056;2022-07-12T13:17:09;22.33;49.34
67354;SHT30;54238;52.278;21.056;2022-07-12T13:19:36;22.36;48.90
67354;SHT30;54238;52.278;21.056;2022-07-12T13:22:05;22.40;48.83
67354;SHT30;54238;52.278;21.056;2022-07-12T13:24:34;22.43;48.68
67354;SHT30;54238;52.278;21.056;2022-07-12T13:27:03;22.45;48.61
67354;SHT30;54238;52.278;21.056;2022-07-12T13:29:34;22.45;48.38
67354;SHT30;54238;52.278;21.056;2022-07-12T13:32:03;22.42;48.44
67354;SHT30;54238;52.278;21.056;2022-07-12T13:34:33;22.42;48.48
67354;SHT30;54238;52.278;21.056;2022-07-12T13:37:00;22.45;48.40
67354;SHT30;54238;52.278;21.056;2022-07-12T13:39:27;22.47;48.50
67354;SHT30;54238;52.278;21.056;2022-07-12T13:42:13;22.41;48.07
67354;SHT30;54238;52.278;21.056;2022-07-12T13:44:42;22.34;48.14
67354;SHT30;54238;52.278;21.056;2022-07-12T13:47:12;22.27;48.30
67354;SHT30;54238;52.278;21.056;2022-07-12T13:49:41;22.25;48.33
67354;SHT30;54238;52.278;21.056;2022-07-12T13:52:14;22.20;48.16
67354;SHT30;54238;52.278;21.056;2022-07-12T13:54:44;22.15;48.13
67354;SHT30;54238;52.278;21.056;2022-07-12T13:57:11;22.09;48.23
67354;SHT30;54238;52.278;21.056;2022-07-12T13:59:41;22.02;48.32
67354;SHT30;54238;52.278;21.056;2022-07-12T14:02:11;22.00;48.64
67354;SHT30;54238;52.278;21.056;2022-07-12T14:04:39;22.02;48.74
67354;SHT30;54238;52.278;21.056;2022-07-12T14:07:09;22.02;48.86
67354;SHT30;54238;52.278;21.056;2022-07-12T14:09:40;21.98;48.56
67354;SHT30;54238;52.278;21.056;2022-07-12T14:12:10;21.94;48.55
67354;SHT30;54238;52.278;21.056;2022-07-12T14:14:39;21.90;48.52
67354;SHT30;54238;52.278;21.056;2022-07-12T14:17:28;21.90;48.90
67354;SHT30;54238;52.278;21.056;2022-07-12T14:19:57;21.90;48.83
67354;SHT30;54238;52.278;21.056;2022-07-12T14:22:24;21.93;49.07
67354;SHT30;54238;52.278;21.056;2022-07-12T14:24:53;21.93;48.92
67354;SHT30;54238;52.278;21.056;2022-07-12T14:27:20;21.94;48.73
67354;SHT30;54238;52.278;21.056;2022-07-12T14:29:47;21.94;48.43
67354;SHT30;54238;52.278;21.056;2022-07-12T14:32:16;21.93;48.55
67354;SHT30;54238;52.278;21.056;2022-07-12T14:34:44;21.97;48.63
67354;SHT30;54238;52.278;21.056;2022-07-12T14:37:18;22.00;48.37
67354;SHT30;54238;52.278;21.056;2022-07-12T14:39:45;22.04;48.54
67354;SHT30;54238;52.278;21.056;2022-07-12T14:42:12;22.08;48.19
67354;SHT30;54238;52.278;21.056;2022-07-12T14:44:44;22.10;48.23
67354;SHT30;54238;52.278;21.056;2022-07-12T14:47:16;22.11;48.22
67354;SHT30;54238;52.278;21.056;2022-07-12T14:49:47;22.11;48.37
67354;SHT30;54238;52.278;21.056;2022-07-12T14:52:19;22.11;47.97
67354;SHT30;54238;52.278;21.056;2022-07-12T14:54:48;22.08;47.88
67354;SHT30;54238;52.278;21.056;2022-07-12T14:57:17;22.04;47.80
67354;SHT30;54238;52.278;21.056;2022-07-12T14:59:47;22.01;48.04
67354;SHT30;54238;52.278;21.056;2022-07-12T15:02:20;22.00;48.19
67354;SHT30;54238;52.278;21.056;2022-07-12T15:04:48;21.97;48.09
67354;SHT30;54238;52.278;21.056;2022-07-12T15:07:15;22.00;48.27
67354;SHT30;54238;52.278;21.056;2022-07-12T15:09:45;21.99;48.22
67354;SHT30;54238;52.278;21.056;2022-07-12T15:12:12;21.99;48.29
67354;SHT30;54238;52.278;21.056;2022-07-12T15:14:39;22.00;48.62
67354;SHT30;54238;52.278;21.056;2022-07-12T15:17:07;21.98;48.56
67354;SHT30;54238;52.278;21.056;2022-07-12T15:19:34;22.00;48.58
67354;SHT30;54238;52.278;21.056;2022-07-12T15:22:03;22.00;48.55
67354;SHT30;54238;52.278;21.056;2022-07-12T15:24:31;21.97;48.58
67354;SHT30;54238;52.278;21.056;2022-07-12T15:27:02;21.96;48.64
67354;SHT30;54238;52.278;21.056;2022-07-12T15:29:32;21.94;49.00
67354;SHT30;54238;52.278;21.056;2022-07-12T15:31:59;21.92;49.02
67354;SHT30;54238;52.278;21.056;2022-07-12T15:34:26;21.90;49.32
67354;SHT30;54238;52.278;21.056;2022-07-12T15:39:29;21.89;49.52
67354;SHT30;54238;52.278;21.056;2022-07-12T15:41:56;21.90;49.56
67354;SHT30;54238;52.278;21.056;2022-07-12T15:44:33;21.88;49.51
67354;SHT30;54238;52.278;21.056;2022-07-12T15:47:03;21.86;49.62
67354;SHT30;54238;52.278;21.056;2022-07-12T15:49:32;21.85;49.65
67354;SHT30;54238;52.278;21.056;2022-07-12T15:52:05;21.84;49.52
67354;SHT30;54238;52.278;21.056;2022-07-12T15:54:50;21.82;49.45
67354;SHT30;54238;52.278;21.056;2022-07-12T15:57:20;21.81;49.19